createdAt,value
2018-07-25T00:00:23.574Z,18.4
2018-07-25T00:01:13.955Z,18.5
2018-07-25T00:02:03.758Z,18.4
2018-07-25T00:02:53.491Z,18.5
2018-07-25T00:03:44.119Z,18.5
2018-07-25T00:04:33.889Z,18.5
2018-07-25T00:05:24.243Z,18.5
2018-07-25T00:06:14.426Z,18.4
2018-07-25T00:07:04.087Z,18.5
2018-07-25T00:07:54.430Z,18.4
2018-07-25T00:08:43.946Z,18.4
2018-07-25T00:09:34.287Z,18.4
2018-07-25T00:10:24.637Z,18.4
2018-07-25T00:11:14.153Z,18.4
2018-07-25T00:12:04.768Z,18.4
2018-07-25T00:12:54.836Z,18.4
2018-07-25T00:13:44.625Z,18.4
2018-07-25T00:14:34.670Z,18.4
2018-07-25T00:15:24.493Z,18.4
2018-07-25T00:16:14.806Z,18.4
2018-07-25T00:17:04.603Z,18.4
2018-07-25T00:17:54.666Z,18.4
2018-07-25T00:18:45.264Z,18.4
2018-07-25T00:19:35.100Z,18.4
2018-07-25T00:20:25.199Z,18.4
2018-07-25T00:21:14.915Z,18.4
2018-07-25T00:22:05.277Z,18.4
2018-07-25T00:22:55.342Z,18.4
2018-07-25T00:23:45.371Z,18.3
2018-07-25T00:24:35.163Z,18.4
2018-07-25T00:25:25.508Z,18.3
2018-07-25T00:26:15.867Z,18.3
2018-07-25T00:27:05.352Z,18.3
2018-07-25T00:27:56.029Z,18.3
2018-07-25T00:28:46.048Z,18.3
2018-07-25T00:29:35.845Z,18.3
2018-07-25T00:30:25.903Z,18.3
2018-07-25T00:31:15.680Z,18.3
2018-07-25T00:32:06.305Z,18.3
2018-07-25T00:32:56.384Z,18.3
2018-07-25T00:33:46.436Z,18.3
2018-07-25T00:34:36.489Z,18.3
2018-07-25T00:35:26.287Z,18.3
2018-07-25T00:36:16.622Z,18.3
2018-07-25T00:37:06.696Z,18.3
2018-07-25T00:37:56.482Z,18.3
2018-07-25T00:38:46.816Z,18.2
2018-07-25T00:39:36.606Z,18.2
2018-07-25T00:40:26.942Z,18.2
2018-07-25T00:41:16.713Z,18.2
2018-07-25T00:42:07.087Z,18.2
2018-07-25T00:42:56.843Z,18.2
2018-07-25T00:43:46.648Z,18.2
2018-07-25T00:44:37.315Z,18.2
2018-07-25T00:45:27.354Z,18.3
2018-07-25T00:46:17.377Z,18.3
2018-07-25T00:47:07.173Z,18.3
2018-07-25T00:47:57.561Z,18.3
2018-07-25T00:48:47.337Z,18.3
2018-07-25T00:49:37.696Z,18.3
2018-07-25T00:50:27.167Z,18.3
2018-07-25T00:51:17.785Z,18.2
2018-07-25T00:52:07.302Z,18.2
2018-07-25T00:52:57.932Z,18.2
2018-07-25T00:53:47.425Z,18.2
2018-07-25T00:54:38.058Z,18.2
2018-07-25T00:55:28.423Z,18.2
2018-07-25T00:56:17.899Z,18.3
2018-07-25T21:28:37.821Z,17.6
2018-07-25T21:29:28.035Z,17.6
2018-07-25T21:30:18.108Z,17.6
2018-07-25T21:31:08.026Z,17.6
2018-07-25T21:31:57.995Z,17.6
2018-07-25T21:32:47.744Z,17.6
2018-07-25T21:33:38.131Z,17.6
2018-07-25T21:34:28.159Z,17.6
2018-07-25T21:35:18.235Z,17.6
2018-07-25T21:36:08.791Z,17.6
2018-07-25T21:36:58.364Z,17.6
2018-07-25T21:37:48.122Z,17.7
2018-07-25T21:38:38.189Z,17.7
2018-07-25T21:39:28.620Z,17.6
2018-07-25T21:40:18.869Z,17.6
2018-07-25T21:41:08.090Z,17.6
2018-07-25T21:41:58.413Z,17.6
2018-07-25T21:42:49.052Z,17.6
2018-07-25T21:43:39.119Z,17.6
2018-07-25T21:44:29.201Z,17.5
2018-07-25T21:45:19.255Z,17.6
2018-07-25T21:46:09.305Z,17.5
2018-07-25T21:46:59.414Z,17.5
2018-07-25T21:47:49.157Z,17.6
2018-07-25T21:48:39.248Z,17.5
2018-07-25T21:49:29.581Z,17.6
2018-07-25T21:50:19.623Z,17.5
2018-07-25T21:51:09.905Z,17.4
2018-07-25T21:51:59.758Z,17.5
2018-07-25T21:52:49.815Z,17.4
2018-07-25T21:53:39.890Z,17.5
2018-07-25T21:54:29.722Z,17.5
2018-07-25T21:55:19.991Z,17.6
2018-07-25T21:56:09.508Z,17.6
2018-07-25T21:57:00.142Z,17.5
2018-07-25T21:57:50.211Z,17.5
2018-07-25T21:58:40.274Z,17.4
2018-07-25T21:59:29.802Z,17.4
2018-07-25T22:00:20.391Z,17.4
2018-07-25T22:01:10.168Z,17.4
2018-07-25T22:02:00.228Z,17.4
2018-07-25T22:02:50.304Z,17.4
2018-07-25T22:03:40.134Z,17.4
2018-07-25T22:04:30.450Z,17.3
2018-07-25T22:05:20.766Z,17.4
2018-07-25T22:06:10.815Z,17.4
2018-07-25T22:07:00.873Z,17.3
2018-07-25T22:07:50.478Z,17.3
2018-07-25T22:08:40.292Z,17.3
2018-07-25T22:09:30.324Z,17.3
2018-07-25T22:10:20.685Z,17.3
2018-07-25T22:11:10.725Z,17.3
2018-07-25T22:12:00.802Z,17.3
2018-07-25T22:12:50.927Z,17.3
2018-07-25T22:13:41.430Z,17.3
2018-07-25T22:14:31.310Z,17.3
2018-07-25T22:15:21.277Z,17.3
2018-07-25T22:16:11.632Z,17.3
2018-07-25T22:17:01.098Z,17.3
2018-07-25T22:17:51.170Z,17.3
2018-07-25T22:18:41.245Z,17.4
2018-07-25T22:19:31.904Z,17.4
2018-07-25T22:20:21.953Z,17.4
2018-07-25T22:21:11.433Z,17.4
2018-07-25T22:22:01.792Z,17.4
2018-07-25T22:22:52.121Z,17.4
2018-07-25T22:23:42.204Z,17.4
2018-07-25T22:24:31.981Z,17.4
2018-07-25T22:25:22.016Z,17.4
2018-07-25T22:26:12.359Z,17.4
2018-07-25T22:27:01.878Z,17.4
2018-07-25T22:27:51.968Z,17.5
2018-07-25T22:28:41.830Z,17.5
2018-07-25T22:29:32.101Z,17.4
2018-07-25T22:30:22.647Z,17.4
2018-07-25T22:31:11.891Z,17.4
2018-07-25T22:32:02.267Z,17.4
2018-07-25T22:32:52.349Z,17.4
2018-07-25T22:33:42.383Z,17.4
2018-07-25T22:34:31.891Z,17.4
2018-07-25T22:35:22.520Z,17.4
2018-07-25T22:36:12.123Z,17.4
2018-07-25T22:37:02.652Z,17.3
2018-07-25T22:37:52.881Z,17.4
2018-07-25T22:38:42.494Z,17.3
2018-07-25T22:39:32.855Z,17.4
2018-07-25T22:40:22.654Z,17.3
2018-07-25T22:41:12.692Z,17.4
2018-07-25T22:42:02.351Z,17.4
2018-07-25T22:42:52.548Z,17.4
2018-07-25T22:43:42.572Z,17.4
2018-07-25T22:44:32.943Z,17.3
2018-07-25T22:45:23.415Z,17.4
2018-07-25T22:46:13.396Z,17.3
2018-07-25T22:47:04.047Z,17.3
2018-07-25T22:47:53.305Z,17.3
2018-07-25T22:48:42.780Z,17.3
2018-07-25T22:49:33.889Z,17.3
2018-07-25T22:50:23.404Z,17.2
2018-07-25T22:51:13.572Z,17.3
2018-07-25T22:52:03.845Z,17.2
2018-07-25T22:52:54.171Z,17.2
2018-07-25T22:53:43.842Z,17.2
2018-07-25T22:54:34.572Z,17.2
2018-07-25T22:55:23.616Z,17.3
2018-07-25T22:56:13.938Z,17.2
2018-07-25T22:57:03.332Z,17.2
2018-07-25T22:57:54.535Z,17.1
2018-07-25T22:58:44.892Z,17.2
2018-07-25T22:59:34.393Z,17.1
2018-07-25T23:00:24.781Z,17.1
2018-07-25T23:01:14.802Z,17.1
2018-07-25T23:02:04.862Z,17.1
2018-07-25T23:02:54.909Z,17.1
2018-07-25T23:03:45.241Z,17.1
2018-07-25T23:04:35.055Z,17.1
2018-07-25T23:10:25.765Z,17.1
2018-07-25T23:12:55.668Z,17.1
2018-07-25T23:13:45.727Z,17.1
2018-07-25T23:14:36.426Z,17.1
2018-07-25T23:18:46.125Z,16.9
2018-07-25T23:25:26.962Z,17.1
2018-07-25T23:27:06.503Z,17.1
2018-07-25T23:27:57.095Z,17.1
2018-07-25T23:28:47.165Z,17.1
2018-07-25T23:31:17.122Z,16.9
2018-07-25T23:32:06.888Z,16.9
2018-07-25T23:32:57.250Z,16.9
2018-07-25T23:33:46.717Z,16.9
2018-07-25T23:34:37.373Z,16.9
2018-07-25T23:35:27.421Z,16.9
2018-07-25T23:39:37.488Z,17.1
2018-07-25T23:40:27.785Z,17.1
2018-07-25T23:41:17.877Z,17.1
2018-07-25T23:42:08.195Z,17.1
2018-07-25T23:42:58.299Z,17.1
2018-07-25T23:43:48.318Z,17.1
2018-07-25T23:44:37.827Z,17.1
2018-07-25T23:45:28.469Z,17.1
2018-07-25T23:46:17.956Z,17.1
2018-07-25T23:47:08.018Z,17.1
2018-07-25T23:47:58.616Z,17.1
2018-07-25T23:48:48.698Z,17.1
2018-07-25T23:49:38.794Z,17.1
2018-07-25T23:50:28.559Z,17.1
2018-07-25T23:51:18.943Z,17.1
2018-07-25T23:52:08.977Z,17.1
2018-07-25T23:52:59.048Z,17.1
2018-07-25T23:53:49.075Z,17.1
2018-07-25T23:54:39.143Z,17.1
2018-07-25T23:55:28.940Z,17.1
2018-07-25T23:56:19.012Z,17.1
2018-07-25T23:57:09.383Z,17.1
2018-07-25T23:57:59.416Z,17.1
2018-07-25T23:58:49.181Z,17.2
2018-07-25T23:59:39.562Z,17.2
